PS34 weather

North Penn Usarc Heliport
Worcester, Pennsylvania, United States

Public forecast

Using degrees Fahrenheit for public forecast. Weather courtesy of forecast.io.

METAR (pilot weather report)

Closest report is Wings Field, 4.8 nm (8.9 km) SE. Retrieved 2019/09/23 07:35 UTC (17 minutes ago):

KLOM 230735Z AUTO 20007KT 10SM CLR 21/19 A2997 RMK AO2 T02130186

TAF (pilot weather forecast)

Closest forecast is Northeast Philadelphia Airport, 16.6 nm (30.7 km) ESE. Retrieved 2019/09/23 06:40 UTC (1 hour ago):

TAF KPNE 230538Z 2306/2406 21006KT P6SM SKC FM231400 24009G16KT P6SM SCT150 FM232300 25010G14KT P6SM -SHRA BKN080 FM240300 27006KT P6SM BKN090